createdAt,value
2022-09-28T00:00:59.262Z,98888.75
2022-09-28T00:03:25.707Z,98885.19
2022-09-28T00:05:52.097Z,98885.19
2022-09-28T00:08:18.653Z,98875.84
2022-09-28T00:10:45.683Z,98876.69
2022-09-28T00:13:12.071Z,98875.91
2022-09-28T00:15:38.468Z,98882.09
2022-09-28T00:18:05.292Z,98878.59
2022-09-28T00:20:31.729Z,98872.50
2022-09-28T00:22:58.155Z,98877.00
2022-09-28T00:25:24.952Z,98875.19
2022-09-28T00:27:51.419Z,98864.75
2022-09-28T00:30:17.839Z,98877.94
2022-09-28T00:32:44.274Z,98883.00
2022-09-28T00:35:11.004Z,98867.50
2022-09-28T00:37:37.480Z,98881.31
2022-09-28T00:40:04.317Z,98870.03
2022-09-28T00:42:30.825Z,98864.88
2022-09-28T00:44:58.136Z,98860.56
2022-09-28T00:47:33.909Z,98866.72
2022-09-28T00:50:05.328Z,98862.34
2022-09-28T00:52:41.669Z,98856.38
2022-09-28T00:55:15.891Z,98856.59
2022-09-28T00:57:48.084Z,98853.84
2022-09-28T01:00:15.328Z,98841.53
2022-09-28T01:02:43.368Z,98847.63
2022-09-28T01:05:11.205Z,98845.03
2022-09-28T01:07:38.361Z,98849.38
2022-09-28T01:10:07.169Z,98842.50
2022-09-28T01:12:33.647Z,98844.19
2022-09-28T01:15:01.848Z,98841.97
2022-09-28T01:17:38.509Z,98837.72
2022-09-28T01:20:05.824Z,98837.59
2022-09-28T01:22:50.383Z,98845.50
2022-09-28T01:25:44.920Z,98849.75
2022-09-28T01:28:17.169Z,98844.78
2022-09-28T01:31:25.301Z,98844.78
2022-09-28T01:33:59.659Z,98845.63
2022-09-28T01:36:34.948Z,98849.16
2022-09-28T01:39:08.423Z,98849.09
2022-09-28T01:41:38.053Z,98852.34
2022-09-28T01:44:08.610Z,98851.56
2022-09-28T01:46:48.350Z,98845.41
2022-09-28T01:49:22.891Z,98850.72
2022-09-28T01:52:01.376Z,98845.09
2022-09-28T01:54:44.587Z,98842.50
2022-09-28T01:57:27.142Z,98847.00
2022-09-28T02:00:09.070Z,98834.72
2022-09-28T02:02:58.922Z,98835.69
2022-09-28T02:05:38.681Z,98833.69
2022-09-28T02:08:09.707Z,98832.19
2022-09-28T02:11:13.214Z,98834.91
2022-09-28T02:13:48.586Z,98832.56
2022-09-28T02:16:15.100Z,98831.66
2022-09-28T02:18:42.039Z,98831.59
2022-09-28T02:21:17.763Z,98827.81
2022-09-28T02:23:56.356Z,98832.28
2022-09-28T02:26:29.521Z,98837.34
2022-09-28T02:28:55.958Z,98834.91
2022-09-28T02:31:22.491Z,98835.03
2022-09-28T02:33:51.216Z,98835.75
2022-09-28T02:36:17.712Z,98841.28
2022-09-28T02:38:44.376Z,98836.91
2022-09-28T02:41:35.191Z,98838.88
2022-09-28T02:44:26.463Z,98839.47
2022-09-28T02:47:43.409Z,98836.66
2022-09-28T02:50:29.483Z,98844.50
2022-09-28T02:53:31.452Z,98839.47
2022-09-28T02:56:22.669Z,98842.88
2022-09-28T02:59:10.935Z,98840.56
2022-09-28T03:01:47.854Z,98844.94
2022-09-28T03:04:26.479Z,98842.47
2022-09-28T03:06:59.261Z,98843.09
2022-09-28T03:09:40.047Z,98837.66
2022-09-28T03:12:13.688Z,98849.59
2022-09-28T03:14:40.145Z,98833.03
2022-09-28T03:17:06.604Z,98834.59
2022-09-28T03:19:34.599Z,98841.50
2022-09-28T03:22:01.669Z,98837.13
2022-09-28T03:24:28.114Z,98837.88
2022-09-28T03:26:54.837Z,98840.59
2022-09-28T03:29:21.252Z,98840.78
2022-09-28T03:31:49.059Z,98852.44
2022-09-28T03:34:15.722Z,98851.47
2022-09-28T03:36:42.937Z,98847.16
2022-09-28T03:39:09.344Z,98855.22
2022-09-28T03:41:35.742Z,98852.06
2022-09-28T03:44:02.564Z,98851.56
2022-09-28T03:46:28.998Z,98849.88
2022-09-28T03:48:57.140Z,98853.22
2022-09-28T03:51:23.721Z,98847.84
2022-09-28T03:53:50.104Z,98848.56
2022-09-28T03:56:17.435Z,98845.25
2022-09-28T03:58:43.864Z,98847.84
2022-09-28T04:01:16.642Z,98843.34
2022-09-28T04:03:43.728Z,98845.19
2022-09-28T04:06:10.694Z,98846.88
2022-09-28T04:08:37.163Z,98846.09
2022-09-28T04:11:03.618Z,98848.69
2022-09-28T04:13:30.529Z,98850.38
2022-09-28T04:15:59.088Z,98845.94
2022-09-28T04:18:26.101Z,98845.09
2022-09-28T04:21:07.023Z,98841.41
2022-09-28T04:23:38.539Z,98846.50
2022-09-28T04:26:07.540Z,98857.31
2022-09-28T04:28:52.723Z,98858.41
2022-09-28T04:31:23.646Z,98854.75
2022-09-28T04:33:50.204Z,98854.66
2022-09-28T04:36:17.566Z,98844.22
2022-09-28T04:38:59.351Z,98848.38
2022-09-28T04:41:26.492Z,98843.88
2022-09-28T04:43:53.140Z,98845.84
2022-09-28T04:46:20.180Z,98853.06
2022-09-28T04:48:46.692Z,98848.63
2022-09-28T04:51:13.199Z,98849.53
2022-09-28T04:53:39.760Z,98852.06
2022-09-28T04:56:09.985Z,98851.31
2022-09-28T04:58:36.493Z,98849.53
2022-09-28T05:01:06.860Z,98858.16
2022-09-28T05:03:34.036Z,98852.94
2022-09-28T05:06:01.542Z,98841.66
2022-09-28T05:08:28.759Z,98837.41
2022-09-28T05:11:14.641Z,98845.00
2022-09-28T05:13:45.220Z,98843.09
2022-09-28T05:16:13.503Z,98841.34
2022-09-28T05:18:40.000Z,98844.94
2022-09-28T05:21:14.348Z,98851.06
2022-09-28T05:23:45.443Z,98851.78
2022-09-28T05:26:11.888Z,98848.38
2022-09-28T05:28:38.300Z,98848.31
2022-09-28T05:31:05.648Z,98846.56
2022-09-28T05:33:33.105Z,98847.47
2022-09-28T05:36:01.614Z,98849.31
2022-09-28T05:38:28.629Z,98851.84
2022-09-28T05:40:55.123Z,98849.16
2022-09-28T05:43:22.006Z,98860.28
2022-09-28T05:45:52.897Z,98861.84
2022-09-28T05:48:21.783Z,98858.22
2022-09-28T05:50:52.518Z,98857.66
2022-09-28T05:53:19.613Z,98863.88
2022-09-28T05:55:46.202Z,98867.34
2022-09-28T05:58:12.670Z,98870.03
2022-09-28T06:00:39.124Z,98872.84
2022-09-28T06:03:09.474Z,98874.84
2022-09-28T06:05:36.996Z,98869.69
2022-09-28T06:08:05.269Z,98870.47
2022-09-28T06:10:32.977Z,98872.84
2022-09-28T06:12:59.769Z,98873.78
2022-09-28T06:15:28.956Z,98878.22
2022-09-28T06:18:02.810Z,98872.84
2022-09-28T06:20:31.478Z,98879.56
2022-09-28T06:22:58.123Z,98879.69
2022-09-28T06:25:27.567Z,98883.28
2022-09-28T06:28:04.932Z,98875.81
2022-09-28T06:30:34.412Z,98885.13
2022-09-28T06:33:01.957Z,98889.50
2022-09-28T06:35:30.408Z,98885.94
2022-09-28T06:37:58.179Z,98895.34
2022-09-28T06:40:25.113Z,98899.03
2022-09-28T06:42:56.966Z,98899.16
2022-09-28T06:45:25.292Z,98900.72
2022-09-28T06:47:57.436Z,98913.81
2022-09-28T06:50:37.385Z,98917.34
2022-09-28T06:53:06.757Z,98909.66
2022-09-28T06:55:33.517Z,98919.28
2022-09-28T06:58:02.333Z,98916.38
2022-09-28T07:00:32.833Z,98924.19
2022-09-28T07:03:00.139Z,98922.19
2022-09-28T07:05:29.936Z,98926.75
2022-09-28T07:07:57.273Z,98931.13
2022-09-28T07:10:28.365Z,98934.50
2022-09-28T07:12:56.195Z,98929.31
2022-09-28T07:15:23.399Z,98939.31
2022-09-28T07:18:02.693Z,98939.25
2022-09-28T07:20:30.347Z,98933.41
2022-09-28T07:23:14.239Z,98935.91
2022-09-28T07:25:47.795Z,98936.00
2022-09-28T07:28:15.162Z,98936.91
2022-09-28T07:30:42.230Z,98944.59
2022-09-28T07:33:12.574Z,98940.38
2022-09-28T07:35:39.028Z,98947.34
2022-09-28T07:38:07.380Z,98950.03
2022-09-28T07:40:54.441Z,98940.38
2022-09-28T07:43:22.196Z,98954.25
2022-09-28T07:45:52.910Z,98962.91
2022-09-28T07:48:19.993Z,98966.06
2022-09-28T07:50:51.736Z,98971.28
2022-09-28T07:53:19.345Z,98968.41
2022-09-28T07:55:52.689Z,98965.03
2022-09-28T07:58:20.681Z,98962.72
2022-09-28T08:00:48.405Z,98965.19
2022-09-28T08:03:16.842Z,98968.59
2022-09-28T08:05:43.433Z,98971.94
2022-09-28T08:08:19.558Z,98978.63
2022-09-28T08:10:50.919Z,98974.25
2022-09-28T08:13:18.248Z,98988.09
2022-09-28T08:15:47.211Z,98984.63
2022-09-28T08:18:37.095Z,98981.88
2022-09-28T08:21:25.424Z,98980.91
2022-09-28T08:23:52.975Z,98989.53
2022-09-28T08:26:19.524Z,98995.41
2022-09-28T08:28:50.238Z,98991.84
2022-09-28T08:31:16.983Z,98990.84
2022-09-28T08:33:43.427Z,99003.84
2022-09-28T08:36:10.354Z,99000.53
2022-09-28T08:38:36.795Z,99003.06
2022-09-28T08:41:12.105Z,99002.06
2022-09-28T08:43:45.923Z,99002.00
2022-09-28T08:46:14.963Z,99006.13
2022-09-28T08:49:25.441Z,99001.75
2022-09-28T08:51:58.902Z,99012.22
2022-09-28T08:54:48.792Z,99022.78
2022-09-28T08:57:21.901Z,99022.06
2022-09-28T08:59:56.999Z,99026.28
2022-09-28T09:02:36.758Z,99029.94
2022-09-28T09:05:08.358Z,99033.34
2022-09-28T09:08:16.191Z,99019.38
2022-09-28T09:10:45.355Z,99033.94
2022-09-28T09:13:34.814Z,99029.41
2022-09-28T09:16:11.779Z,99031.63
2022-09-28T09:18:49.226Z,99027.19
2022-09-28T09:21:18.849Z,99038.47
2022-09-28T09:23:56.764Z,99036.78
2022-09-28T09:26:39.249Z,99042.25
2022-09-28T09:29:38.459Z,99049.25
2022-09-28T09:32:36.906Z,99039.66
2022-09-28T09:35:12.354Z,99045.66
2022-09-28T09:37:58.509Z,99040.19
2022-09-28T09:40:43.166Z,99053.94
2022-09-28T09:43:22.249Z,99051.22
2022-09-28T09:46:11.825Z,99056.31
2022-09-28T09:48:51.936Z,99055.22
2022-09-28T09:51:43.500Z,99053.25
2022-09-28T09:54:19.946Z,99049.69
2022-09-28T09:56:56.747Z,99051.13
2022-09-28T09:59:27.689Z,99049.41
2022-09-28T10:01:55.884Z,99050.31
2022-09-28T10:04:27.616Z,99053.75
2022-09-28T10:07:00.635Z,99058.06
2022-09-28T10:09:32.228Z,99051.16
2022-09-28T10:11:58.693Z,99053.59
2022-09-28T10:14:25.607Z,99057.84
2022-09-28T10:16:55.534Z,99051.59
2022-09-28T10:19:33.186Z,99053.00
2022-09-28T10:22:03.135Z,99048.34
2022-09-28T10:24:41.304Z,99056.88
2022-09-28T10:27:14.107Z,99055.94
2022-09-28T10:29:49.597Z,99059.47
2022-09-28T10:32:46.022Z,99058.34
2022-09-28T10:35:18.599Z,99058.34
2022-09-28T10:38:06.682Z,99055.53
2022-09-28T10:40:44.752Z,99059.59
2022-09-28T10:43:30.071Z,99066.41
2022-09-28T10:46:23.474Z,99061.16
2022-09-28T10:48:49.923Z,99057.72
2022-09-28T10:51:17.079Z,99064.59
2022-09-28T10:53:58.830Z,99067.91
2022-09-28T10:56:28.372Z,99068.59
2022-09-28T10:58:54.763Z,99063.34
2022-09-28T11:01:29.112Z,99061.50
2022-09-28T11:03:59.695Z,99057.03
2022-09-28T11:06:38.175Z,99057.63
2022-09-28T11:09:21.258Z,99056.41
2022-09-28T11:11:47.817Z,99059.81
2022-09-28T11:14:41.118Z,99060.66
2022-09-28T11:17:17.956Z,99059.47
2022-09-28T11:19:45.160Z,99054.28
2022-09-28T11:22:41.873Z,99064.91
2022-09-28T11:25:16.447Z,99056.13
2022-09-28T11:27:55.027Z,99061.94
2022-09-28T11:30:27.739Z,99059.13
2022-09-28T11:33:04.841Z,99056.50
2022-09-28T11:35:53.942Z,99052.47
2022-09-28T11:38:41.013Z,99059.22
2022-09-28T11:41:13.560Z,99070.84
2022-09-28T11:44:28.239Z,99066.66
2022-09-28T11:47:14.167Z,99062.50
2022-09-28T11:50:22.956Z,99059.03
2022-09-28T11:53:09.664Z,99058.88
2022-09-28T11:55:44.015Z,99063.13
2022-09-28T11:58:35.114Z,99051.81
2022-09-28T12:01:19.037Z,99053.41
2022-09-28T12:03:51.849Z,99069.00
2022-09-28T12:06:23.472Z,99057.69
2022-09-28T12:08:55.555Z,99064.63
2022-09-28T12:11:35.906Z,99059.13
2022-09-28T12:14:06.740Z,99055.69
2022-09-28T12:19:41.204Z,99063.06
2022-09-28T12:22:34.729Z,99050.56
2022-09-28T12:25:03.068Z,99060.78
2022-09-28T12:27:58.875Z,99045.75
2022-09-28T12:30:27.389Z,99049.47
2022-09-28T12:33:17.555Z,99058.41
2022-09-28T12:36:03.858Z,99047.56
2022-09-28T12:39:08.745Z,99044.09
2022-09-28T12:41:41.893Z,99046.50
2022-09-28T12:44:41.730Z,99042.72
2022-09-28T12:47:37.289Z,99048.03
2022-09-28T12:53:19.944Z,99050.13
2022-09-28T12:55:56.439Z,99048.13
2022-09-28T12:58:41.853Z,99047.53
2022-09-28T13:01:29.735Z,99046.59
2022-09-28T13:04:11.498Z,99049.50
2022-09-28T13:06:58.214Z,99052.34
2022-09-28T13:09:27.447Z,99047.41
2022-09-28T13:12:22.395Z,99046.41
2022-09-28T13:15:03.959Z,99048.81
2022-09-28T13:17:42.544Z,99042.03
2022-09-28T13:20:22.418Z,99048.34
2022-09-28T13:23:07.516Z,99045.00
2022-09-28T13:25:36.351Z,99037.38
2022-09-28T13:28:05.332Z,99038.38
2022-09-28T13:30:39.003Z,99033.06
2022-09-28T13:33:08.167Z,99033.97
2022-09-28T13:35:35.029Z,99029.44
2022-09-28T13:38:27.874Z,99031.31
2022-09-28T13:41:11.947Z,99030.50
2022-09-28T13:43:58.488Z,99030.50
2022-09-28T13:46:39.496Z,99037.38
2022-09-28T13:49:30.204Z,99035.25
2022-09-28T13:52:05.815Z,99033.53
2022-09-28T13:54:44.352Z,99035.88
2022-09-28T13:57:21.332Z,99032.09
2022-09-28T14:00:16.048Z,99045.97
2022-09-28T14:02:47.869Z,99041.72
2022-09-28T14:05:23.496Z,99036.13
2022-09-28T14:08:08.721Z,99037.91
2022-09-28T14:10:55.828Z,99041.81
2022-09-28T14:13:40.732Z,99038.00
2022-09-28T14:16:24.684Z,99041.47
2022-09-28T14:19:03.485Z,99039.09
2022-09-28T14:21:49.753Z,99044.56
2022-09-28T14:24:31.489Z,99043.19
2022-09-28T14:27:22.543Z,99041.19
2022-09-28T14:30:11.618Z,99039.03
2022-09-28T14:32:47.638Z,99044.19
2022-09-28T14:35:23.973Z,99043.34
2022-09-28T14:38:13.798Z,99039.28
2022-09-28T14:41:09.958Z,99040.16
2022-09-28T14:43:43.581Z,99038.97
2022-09-28T14:46:10.871Z,99050.00
2022-09-28T14:48:57.406Z,99054.78
2022-09-28T14:51:26.961Z,99056.59
2022-09-28T14:53:55.284Z,99049.59
2022-09-28T14:56:22.315Z,99059.41
2022-09-28T14:58:54.835Z,99054.41
2022-09-28T15:01:24.624Z,99073.53
2022-09-28T15:04:04.470Z,99065.59
2022-09-28T15:06:51.757Z,99064.75
2022-09-28T15:09:35.929Z,99062.59
2022-09-28T15:12:15.059Z,99060.38
2022-09-28T15:14:53.447Z,99068.41
2022-09-28T15:17:23.351Z,99070.19
2022-09-28T15:20:26.442Z,99068.91
2022-09-28T15:22:58.436Z,99073.50
2022-09-28T15:25:30.400Z,99085.16
2022-09-28T15:28:06.491Z,99107.00
2022-09-28T15:30:35.100Z,99106.53
2022-09-28T15:33:22.883Z,99107.81
2022-09-28T15:36:03.570Z,99108.22
2022-09-28T15:38:32.379Z,99106.34
2022-09-28T15:41:02.748Z,99103.31
2022-09-28T15:43:34.794Z,99104.38
2022-09-28T15:46:27.955Z,99107.25
2022-09-28T15:48:57.198Z,99110.19
2022-09-28T15:51:24.652Z,99116.69
2022-09-28T15:54:19.381Z,99128.94
2022-09-28T15:57:02.710Z,99147.13
2022-09-28T15:59:31.937Z,99144.97
2022-09-28T16:02:09.453Z,99152.97
2022-09-28T16:04:55.694Z,99163.00
2022-09-28T16:07:32.154Z,99157.25
2022-09-28T16:10:12.790Z,99158.09
2022-09-28T16:12:56.155Z,99163.59
2022-09-28T16:15:25.635Z,99167.38
2022-09-28T16:18:00.603Z,99182.69
2022-09-28T16:20:34.082Z,99172.28
2022-09-28T16:23:08.276Z,99175.19
2022-09-28T16:25:39.000Z,99168.44
2022-09-28T16:28:06.711Z,99174.91
2022-09-28T16:30:34.529Z,99173.34
2022-09-28T16:33:02.378Z,99169.72
2022-09-28T16:35:33.133Z,99173.69
2022-09-28T16:38:00.951Z,99167.56
2022-09-28T16:40:27.923Z,99168.81
2022-09-28T16:42:58.454Z,99171.44
2022-09-28T16:45:25.023Z,99179.84
2022-09-28T16:47:52.368Z,99185.47
2022-09-28T16:50:22.967Z,99176.69
2022-09-28T16:53:31.137Z,99175.78
2022-09-28T16:55:58.280Z,99184.63
2022-09-28T16:58:25.240Z,99182.03
2022-09-28T17:00:54.009Z,99184.47
2022-09-28T17:03:23.363Z,99181.47
2022-09-28T17:05:50.898Z,99184.13
2022-09-28T17:08:19.612Z,99181.47
2022-09-28T17:13:40.863Z,99188.34
2022-09-28T17:16:32.519Z,99197.81
2022-09-28T17:19:03.545Z,99188.00
2022-09-28T17:21:30.983Z,99190.53
2022-09-28T17:23:57.460Z,99184.28
2022-09-28T17:26:31.558Z,99191.16
2022-09-28T17:28:59.393Z,99179.72
2022-09-28T17:31:26.436Z,99183.03
2022-09-28T17:33:52.905Z,99185.44
2022-09-28T17:36:19.532Z,99181.81
2022-09-28T17:38:47.749Z,99184.22
2022-09-28T17:41:20.198Z,99177.16
2022-09-28T17:43:47.056Z,99185.81
2022-09-28T17:46:29.939Z,99181.44
2022-09-28T17:49:00.888Z,99177.91
2022-09-28T17:51:32.471Z,99179.66
2022-09-28T17:54:01.293Z,99177.03
2022-09-28T17:56:32.106Z,99184.88
2022-09-28T17:59:01.682Z,99183.28
2022-09-28T18:01:33.698Z,99186.75
2022-09-28T18:04:02.224Z,99190.28
2022-09-28T18:06:28.944Z,99194.53
2022-09-28T18:08:55.456Z,99196.28
2022-09-28T18:11:22.527Z,99192.06
2022-09-28T18:13:49.051Z,99192.97
2022-09-28T18:16:15.879Z,99200.03
2022-09-28T18:18:43.871Z,99200.09
2022-09-28T18:21:10.497Z,99206.19
2022-09-28T18:23:38.132Z,99210.66
2022-09-28T18:26:10.410Z,99215.09
2022-09-28T18:28:37.438Z,99221.31
2022-09-28T18:31:13.793Z,99220.47
2022-09-28T18:33:40.724Z,99203.97
2022-09-28T18:36:08.171Z,99216.94
2022-09-28T18:38:38.261Z,99210.84
2022-09-28T18:41:10.078Z,99221.47
2022-09-28T18:43:37.061Z,99218.97
2022-09-28T18:46:11.358Z,99224.31
2022-09-28T18:48:40.510Z,99221.03
2022-09-28T18:51:12.492Z,99223.72
2022-09-28T18:53:39.913Z,99231.66
2022-09-28T18:56:12.061Z,99229.94
2022-09-28T18:58:40.355Z,99230.16
2022-09-28T19:01:31.701Z,99236.16
2022-09-28T19:04:03.555Z,99234.47
2022-09-28T19:06:31.800Z,99239.75
2022-09-28T19:08:58.950Z,99238.91
2022-09-28T19:11:26.135Z,99241.50
2022-09-28T19:13:54.501Z,99240.75
2022-09-28T19:16:24.514Z,99243.25
2022-09-28T19:18:52.378Z,99240.69
2022-09-28T19:21:20.069Z,99248.72
2022-09-28T19:23:49.850Z,99242.63
2022-09-28T19:26:22.783Z,99240.13
2022-09-28T19:28:49.604Z,99246.25
2022-09-28T19:31:16.875Z,99248.16
2022-09-28T19:33:45.776Z,99243.91
2022-09-28T19:36:18.348Z,99247.50
2022-09-28T19:38:45.314Z,99249.34
2022-09-28T19:41:43.828Z,99251.25
2022-09-28T19:44:15.716Z,99254.56
2022-09-28T19:46:42.553Z,99259.84
2022-09-28T19:49:14.888Z,99264.22
2022-09-28T19:51:51.650Z,99258.19
2022-09-28T19:54:36.356Z,99259.09
2022-09-28T19:57:08.584Z,99262.66
2022-09-28T19:59:37.097Z,99269.78
2022-09-28T20:02:08.253Z,99269.88
2022-09-28T20:04:34.789Z,99269.06
2022-09-28T20:07:01.835Z,99271.81
2022-09-28T20:09:28.474Z,99273.59
2022-09-28T20:11:55.042Z,99275.41
2022-09-28T20:14:23.531Z,99271.94
2022-09-28T20:16:53.250Z,99278.94
2022-09-28T20:19:21.641Z,99268.56
2022-09-28T20:21:48.484Z,99271.44
2022-09-28T20:24:18.724Z,99271.53
2022-09-28T20:26:45.867Z,99279.25
2022-09-28T20:29:13.035Z,99274.03
2022-09-28T20:31:39.488Z,99281.06
2022-09-28T20:34:06.825Z,99294.19
2022-09-28T20:36:33.816Z,99285.59
2022-09-28T20:39:04.185Z,99283.09
2022-09-28T20:41:35.609Z,99281.72
2022-09-28T20:44:05.810Z,99277.53
2022-09-28T20:46:33.539Z,99276.56
2022-09-28T20:49:00.227Z,99277.44
2022-09-28T20:51:26.843Z,99280.81
2022-09-28T20:53:58.770Z,99280.81
2022-09-28T20:56:27.748Z,99275.66
2022-09-28T20:58:55.374Z,99284.47
2022-09-28T21:01:24.084Z,99282.97
2022-09-28T21:03:58.819Z,99285.50
2022-09-28T21:06:30.268Z,99282.09
2022-09-28T21:08:57.149Z,99284.94
2022-09-28T21:11:25.570Z,99283.06
2022-09-28T21:13:54.047Z,99289.13
2022-09-28T21:16:20.717Z,99288.34
2022-09-28T21:18:47.708Z,99284.94
2022-09-28T21:21:17.077Z,99293.66
2022-09-28T21:23:46.310Z,99289.44
2022-09-28T21:26:24.627Z,99286.84
2022-09-28T21:28:56.095Z,99286.94
2022-09-28T21:31:28.518Z,99283.47
2022-09-28T21:33:55.558Z,99283.53
2022-09-28T21:36:21.961Z,99287.84
2022-09-28T21:38:49.294Z,99287.78
2022-09-28T21:41:15.870Z,99298.41
2022-09-28T21:43:42.340Z,99300.56
2022-09-28T21:46:10.648Z,99301.50
2022-09-28T21:48:37.083Z,99299.78
2022-09-28T21:51:09.058Z,99297.84
2022-09-28T21:53:37.312Z,99297.78
2022-09-28T21:56:06.405Z,99303.84
2022-09-28T21:58:34.545Z,99297.91
2022-09-28T22:01:03.659Z,99291.72
2022-09-28T22:03:31.652Z,99290.03
2022-09-28T22:05:58.304Z,99299.53
2022-09-28T22:08:25.625Z,99292.63
2022-09-28T22:11:13.489Z,99302.44
2022-09-28T22:13:45.522Z,99303.34
2022-09-28T22:16:14.382Z,99292.19
2022-09-28T22:18:41.199Z,99292.97
2022-09-28T22:21:10.653Z,99307.00
2022-09-28T22:23:38.188Z,99310.22
2022-09-28T22:26:20.065Z,99304.97
2022-09-28T22:28:49.388Z,99304.84
2022-09-28T22:31:17.711Z,99303.94
2022-09-28T22:33:44.180Z,99309.13
2022-09-28T22:36:11.046Z,99302.22
2022-09-28T22:38:37.702Z,99301.34
2022-09-28T22:41:04.189Z,99304.84
2022-09-28T22:43:30.976Z,99309.22
2022-09-28T22:46:20.998Z,99310.22
2022-09-28T22:48:49.093Z,99312.31
2022-09-28T22:51:15.830Z,99305.34
2022-09-28T22:53:42.515Z,99300.25
2022-09-28T22:56:09.467Z,99310.72
2022-09-28T22:58:37.915Z,99301.78
2022-09-28T23:01:17.161Z,99301.78
2022-09-28T23:03:44.752Z,99316.78
2022-09-28T23:06:13.694Z,99309.72
2022-09-28T23:08:40.309Z,99306.00
2022-09-28T23:11:06.808Z,99303.31
2022-09-28T23:13:33.564Z,99297.19
2022-09-28T23:16:02.305Z,99300.75
2022-09-28T23:18:30.802Z,99303.59
2022-09-28T23:20:59.433Z,99301.78
2022-09-28T23:23:26.411Z,99298.38
2022-09-28T23:25:53.767Z,99297.47
2022-09-28T23:28:22.824Z,99305.28
2022-09-28T23:30:49.681Z,99306.28
2022-09-28T23:33:17.590Z,99301.00
2022-09-28T23:35:44.698Z,99306.94
2022-09-28T23:38:17.794Z,99298.03
2022-09-28T23:40:47.701Z,99310.91
2022-09-28T23:43:14.486Z,99306.47
2022-09-28T23:45:42.774Z,99305.56
2022-09-28T23:48:09.211Z,99296.19
2022-09-28T23:50:35.606Z,99306.66
2022-09-28T23:53:01.980Z,99302.41
2022-09-28T23:55:29.045Z,99303.31
2022-09-28T23:57:56.612Z,99308.41
